createdAt,value
2023-05-06T00:00:46.185Z,0.10
2023-05-06T00:02:47.768Z,0.10
2023-05-06T00:04:49.471Z,0.20
2023-05-06T00:06:51.379Z,0.08
2023-05-06T00:08:52.874Z,0.20
2023-05-06T00:10:54.292Z,0.10
2023-05-06T00:12:55.775Z,0.00
2023-05-06T00:14:57.242Z,0.10
2023-05-06T00:16:58.751Z,0.20
2023-05-06T00:19:00.590Z,0.20
2023-05-06T00:21:02.065Z,0.05
2023-05-06T00:23:03.736Z,0.10
2023-05-06T00:25:05.681Z,0.13
2023-05-06T00:27:07.108Z,0.05
2023-05-06T00:29:08.659Z,0.20
2023-05-06T00:31:10.486Z,0.10
2023-05-06T00:33:12.209Z,0.10
2023-05-06T00:35:13.684Z,0.20
2023-05-06T00:37:15.182Z,0.13
2023-05-06T00:39:16.773Z,0.20
2023-05-06T00:41:18.225Z,0.10
2023-05-06T00:43:19.844Z,0.13
2023-05-06T00:45:21.353Z,0.15
2023-05-06T00:47:22.962Z,0.15
2023-05-06T00:49:24.696Z,0.10
2023-05-06T00:51:26.334Z,0.10
2023-05-06T00:53:27.925Z,0.10
2023-05-06T00:55:30.344Z,0.10
2023-05-06T00:57:31.867Z,0.10
2023-05-06T00:59:33.301Z,0.10
2023-05-06T01:01:35.018Z,0.10
2023-05-06T01:03:38.126Z,0.10
2023-05-06T01:05:46.115Z,0.10
2023-05-06T01:07:52.319Z,0.10
2023-05-06T01:10:13.542Z,0.15
2023-05-06T01:12:24.386Z,0.10
2023-05-06T01:14:33.180Z,0.10
2023-05-06T01:16:37.799Z,0.10
2023-05-06T01:18:39.859Z,0.10
2023-05-06T01:20:43.366Z,0.10
2023-05-06T01:22:44.912Z,0.08
2023-05-06T01:24:49.553Z,0.10
2023-05-06T01:26:51.072Z,0.00
2023-05-06T01:28:52.818Z,0.10
2023-05-06T01:31:09.069Z,0.17
2023-05-06T01:33:32.755Z,0.10
2023-05-06T01:35:38.414Z,0.10
2023-05-06T01:37:39.954Z,0.10
2023-05-06T01:39:41.966Z,0.10
2023-05-06T01:41:44.305Z,0.13
2023-05-06T01:43:47.379Z,0.15
2023-05-06T01:45:53.229Z,0.10
2023-05-06T01:47:55.674Z,0.10
2023-05-06T01:49:57.790Z,0.20
2023-05-06T01:51:59.271Z,0.10
2023-05-06T01:54:01.293Z,0.20
2023-05-06T01:56:03.043Z,0.10
2023-05-06T01:58:04.489Z,0.10
2023-05-06T02:00:06.591Z,0.10
2023-05-06T02:02:08.369Z,0.10
2023-05-06T02:04:09.954Z,0.00
2023-05-06T02:06:11.391Z,0.03
2023-05-06T02:08:13.068Z,0.10
2023-05-06T02:10:14.605Z,0.10
2023-05-06T02:12:16.110Z,0.05
2023-05-06T02:14:17.517Z,0.13
2023-05-06T02:16:18.947Z,0.10
2023-05-06T02:18:20.643Z,0.20
2023-05-06T02:20:22.219Z,0.10
2023-05-06T02:22:23.848Z,0.10
2023-05-06T02:24:26.665Z,0.10
2023-05-06T02:26:28.138Z,0.08
2023-05-06T02:28:29.612Z,0.08
2023-05-06T02:30:31.189Z,0.10
2023-05-06T02:32:32.682Z,0.10
2023-05-06T02:34:34.295Z,0.00
2023-05-06T02:36:35.958Z,0.10
2023-05-06T02:38:37.401Z,0.17
2023-05-06T02:40:38.885Z,0.13
2023-05-06T02:42:40.543Z,0.00
2023-05-06T02:44:42.419Z,0.10
2023-05-06T02:46:44.129Z,0.10
2023-05-06T02:48:46.471Z,0.10
2023-05-06T02:50:48.052Z,0.00
2023-05-06T02:52:49.645Z,0.10
2023-05-06T02:54:51.148Z,0.17
2023-05-06T02:56:53.322Z,0.13
2023-05-06T02:58:54.854Z,0.13
2023-05-06T03:00:56.329Z,0.05
2023-05-06T03:02:58.002Z,0.00
2023-05-06T03:04:59.587Z,0.03
2023-05-06T03:07:00.965Z,0.10
2023-05-06T03:09:02.461Z,0.10
2023-05-06T03:11:03.856Z,0.10
2023-05-06T03:13:05.675Z,0.10
2023-05-06T03:15:07.425Z,0.10
2023-05-06T03:17:08.985Z,0.10
2023-05-06T03:19:10.447Z,0.10
2023-05-06T03:21:12.709Z,0.10
2023-05-06T03:23:14.190Z,0.10
2023-05-06T03:25:15.757Z,0.10
2023-05-06T03:27:17.228Z,0.10
2023-05-06T03:29:19.096Z,0.20
2023-05-06T03:31:20.785Z,0.05
2023-05-06T03:33:22.518Z,0.20
2023-05-06T03:35:23.910Z,0.00
2023-05-06T03:37:25.561Z,0.00
2023-05-06T03:39:26.956Z,0.10
2023-05-06T03:41:28.395Z,0.10
2023-05-06T03:43:29.906Z,0.00
2023-05-06T03:45:31.380Z,0.00
2023-05-06T03:47:32.813Z,0.05
2023-05-06T03:49:34.255Z,0.00
2023-05-06T03:51:36.182Z,0.00
2023-05-06T03:53:38.137Z,0.10
2023-05-06T03:55:39.610Z,0.08
2023-05-06T03:57:41.105Z,0.05
2023-05-06T03:59:42.478Z,0.10
2023-05-06T04:01:43.901Z,0.10
2023-05-06T04:03:45.954Z,0.00
2023-05-06T04:05:48.951Z,0.10
2023-05-06T04:07:50.471Z,0.10
2023-05-06T04:09:51.941Z,0.10
2023-05-06T04:11:53.343Z,0.10
2023-05-06T04:13:54.776Z,0.03
2023-05-06T04:15:56.856Z,0.10
2023-05-06T04:17:58.298Z,0.10
2023-05-06T04:20:07.031Z,0.03
2023-05-06T04:22:08.551Z,0.10
2023-05-06T04:24:10.336Z,0.10
2023-05-06T04:26:11.884Z,0.10
2023-05-06T04:28:13.400Z,0.10
2023-05-06T04:30:14.907Z,0.10
2023-05-06T04:32:18.022Z,0.10
2023-05-06T04:34:19.951Z,0.10
2023-05-06T04:36:21.766Z,0.10
2023-05-06T04:38:27.090Z,0.00
2023-05-06T04:40:28.595Z,0.10
2023-05-06T04:42:30.071Z,0.08
2023-05-06T04:44:33.958Z,0.10
2023-05-06T04:46:36.034Z,0.10
2023-05-06T04:48:37.844Z,0.08
2023-05-06T04:50:39.223Z,0.00
2023-05-06T04:52:40.782Z,0.13
2023-05-06T04:54:44.817Z,0.10
2023-05-06T04:56:47.034Z,0.10
2023-05-06T04:58:48.469Z,0.10
2023-05-06T05:00:49.897Z,0.00
2023-05-06T05:02:51.551Z,0.10
2023-05-06T05:04:53.445Z,0.10
2023-05-06T05:06:55.022Z,0.10
2023-05-06T05:08:56.967Z,0.10
2023-05-06T05:10:58.679Z,0.10
2023-05-06T05:13:00.186Z,0.10
2023-05-06T05:15:01.785Z,0.10
2023-05-06T05:17:03.349Z,0.10
2023-05-06T05:19:06.795Z,0.00
2023-05-06T05:21:09.882Z,0.10
2023-05-06T05:23:11.373Z,0.20
2023-05-06T05:25:13.205Z,0.10
2023-05-06T05:27:15.169Z,0.10
2023-05-06T05:29:16.586Z,0.10
2023-05-06T05:31:18.073Z,0.20
2023-05-06T05:33:19.591Z,0.10
2023-05-06T05:35:21.151Z,0.10
2023-05-06T05:37:22.535Z,0.10
2023-05-06T05:39:24.072Z,0.15
2023-05-06T05:41:26.737Z,0.10
2023-05-06T05:43:28.186Z,0.15
2023-05-06T05:45:29.651Z,0.10
2023-05-06T05:47:31.211Z,0.10
2023-05-06T05:49:32.937Z,0.10
2023-05-06T05:51:34.507Z,0.10
2023-05-06T05:53:36.172Z,0.20
2023-05-06T05:55:37.706Z,0.17
2023-05-06T05:57:39.118Z,0.10
2023-05-06T05:59:40.510Z,0.10
2023-05-06T06:01:41.974Z,0.20
2023-05-06T06:03:44.096Z,0.17
2023-05-06T06:05:45.632Z,0.20
2023-05-06T06:07:47.116Z,0.10
2023-05-06T06:09:48.935Z,0.10
2023-05-06T06:11:50.568Z,0.10
2023-05-06T06:13:52.114Z,0.20
2023-05-06T06:15:53.576Z,0.20
2023-05-06T06:17:55.165Z,0.10
2023-05-06T06:19:58.015Z,0.17
2023-05-06T06:21:59.816Z,0.15
2023-05-06T06:24:01.678Z,0.20
2023-05-06T06:26:03.780Z,0.10
2023-05-06T06:28:05.538Z,0.10
2023-05-06T06:30:07.240Z,0.10
2023-05-06T06:32:08.736Z,0.10
2023-05-06T06:34:12.558Z,0.10
2023-05-06T06:36:14.237Z,0.20
2023-05-06T06:38:15.732Z,0.10
2023-05-06T06:40:17.224Z,0.10
2023-05-06T06:42:18.681Z,0.10
2023-05-06T06:44:20.388Z,0.20
2023-05-06T06:46:21.966Z,0.10
2023-05-06T06:48:23.530Z,0.10
2023-05-06T06:50:25.068Z,0.10
2023-05-06T06:52:26.557Z,0.10
2023-05-06T06:54:28.284Z,0.00
2023-05-06T06:56:29.857Z,0.20
2023-05-06T06:58:33.247Z,0.13
2023-05-06T07:00:34.726Z,0.13
2023-05-06T07:02:36.207Z,0.10
2023-05-06T07:04:37.706Z,0.10
2023-05-06T07:06:39.214Z,0.10
2023-05-06T07:08:40.777Z,0.20
2023-05-06T07:10:42.468Z,0.10
2023-05-06T07:12:43.991Z,0.20
2023-05-06T07:14:45.469Z,0.13
2023-05-06T07:16:48.670Z,0.10
2023-05-06T07:18:53.747Z,0.10
2023-05-06T07:20:55.242Z,0.17
2023-05-06T07:22:56.709Z,0.10
2023-05-06T07:24:58.118Z,0.10
2023-05-06T07:27:01.159Z,0.10
2023-05-06T07:29:02.714Z,0.08
2023-05-06T07:31:04.168Z,0.10
2023-05-06T07:33:05.773Z,0.10
2023-05-06T07:35:08.009Z,0.17
2023-05-06T07:37:09.556Z,0.10
2023-05-06T07:39:11.576Z,0.10
2023-05-06T07:41:13.105Z,0.10
2023-05-06T07:43:14.556Z,0.10
2023-05-06T07:45:16.082Z,0.10
2023-05-06T07:47:28.699Z,0.17
2023-05-06T07:49:33.123Z,0.00
2023-05-06T07:51:35.078Z,0.10
2023-05-06T07:53:38.083Z,0.10
2023-05-06T07:55:39.588Z,0.10
2023-05-06T07:57:41.231Z,0.10
2023-05-06T07:59:49.406Z,0.10
2023-05-06T08:01:50.844Z,0.10
2023-05-06T08:03:52.313Z,0.10
2023-05-06T08:05:55.177Z,0.20
2023-05-06T08:07:56.673Z,0.10
2023-05-06T08:09:58.307Z,0.10
2023-05-06T08:11:59.976Z,0.10
2023-05-06T08:14:01.583Z,0.20
2023-05-06T08:16:03.220Z,0.00
2023-05-06T08:18:21.082Z,0.10
2023-05-06T08:20:24.073Z,0.20
2023-05-06T08:22:25.817Z,0.20
2023-05-06T08:24:27.373Z,0.10
2023-05-06T08:26:28.773Z,0.10
2023-05-06T08:28:30.373Z,0.10
2023-05-06T08:30:31.807Z,0.10
2023-05-06T08:32:33.209Z,0.10
2023-05-06T08:34:35.115Z,0.10
2023-05-06T08:36:36.790Z,0.10
2023-05-06T08:38:38.249Z,0.20
2023-05-06T08:40:43.725Z,0.10
2023-05-06T08:42:48.995Z,0.10
2023-05-06T08:44:51.781Z,0.08
2023-05-06T08:46:53.456Z,0.10
2023-05-06T08:48:54.927Z,0.10
2023-05-06T08:50:57.390Z,0.10
2023-05-06T08:52:59.947Z,0.10
2023-05-06T08:55:04.938Z,0.10
2023-05-06T08:57:12.305Z,0.10
2023-05-06T08:59:14.219Z,0.10
2023-05-06T09:01:18.812Z,0.10
2023-05-06T09:03:21.759Z,0.15
2023-05-06T09:05:23.305Z,0.10
2023-05-06T09:07:25.689Z,0.20
2023-05-06T09:09:27.217Z,0.10
2023-05-06T09:11:32.244Z,0.08
2023-05-06T09:13:33.696Z,0.10
2023-05-06T09:15:42.029Z,0.10
2023-05-06T09:17:43.528Z,0.10
2023-05-06T09:19:45.148Z,0.10
2023-05-06T09:21:47.574Z,0.10
2023-05-06T09:23:49.109Z,0.20
2023-05-06T09:25:51.234Z,0.10
2023-05-06T09:28:02.849Z,0.20
2023-05-06T09:30:07.892Z,0.10
2023-05-06T09:32:10.373Z,0.13
2023-05-06T09:34:12.448Z,0.20
2023-05-06T09:36:14.291Z,0.10
2023-05-06T09:38:16.375Z,0.17
2023-05-06T09:40:18.026Z,0.10
2023-05-06T09:42:19.698Z,0.05
2023-05-06T09:44:22.162Z,0.10
2023-05-06T09:46:24.271Z,0.10
2023-05-06T09:48:28.623Z,0.20
2023-05-06T09:50:30.104Z,0.10
2023-05-06T09:52:31.766Z,0.10
2023-05-06T09:54:33.264Z,0.20
2023-05-06T09:56:35.216Z,0.20
2023-05-06T09:58:37.311Z,0.13
2023-05-06T10:00:39.155Z,0.20
2023-05-06T10:02:41.329Z,0.30
2023-05-06T10:04:43.600Z,0.17
2023-05-06T10:06:48.911Z,0.20
2023-05-06T10:08:50.942Z,0.08
2023-05-06T10:10:52.787Z,0.10
2023-05-06T10:12:54.434Z,0.20
2023-05-06T10:14:56.145Z,0.20
2023-05-06T10:16:57.845Z,0.13
2023-05-06T10:18:59.952Z,0.20
2023-05-06T10:21:01.968Z,0.22
2023-05-06T10:23:07.193Z,0.10
2023-05-06T10:25:19.222Z,0.10
2023-05-06T10:27:23.441Z,0.20
2023-05-06T10:29:26.177Z,0.10
2023-05-06T10:31:28.538Z,0.20
2023-05-06T10:33:30.404Z,0.10
2023-05-06T10:35:42.488Z,0.17
2023-05-06T10:37:45.434Z,0.20
2023-05-06T10:39:46.996Z,0.20
2023-05-06T10:41:48.577Z,0.20
2023-05-06T10:43:56.867Z,0.10
2023-05-06T10:45:58.645Z,0.20
2023-05-06T10:48:03.322Z,0.20
2023-05-06T10:50:20.285Z,0.10
2023-05-06T10:52:21.697Z,0.15
2023-05-06T10:54:23.518Z,0.10
2023-05-06T10:56:25.631Z,0.10
2023-05-06T10:58:27.074Z,0.13
2023-05-06T11:00:32.297Z,0.20
2023-05-06T11:02:33.958Z,0.10
2023-05-06T11:04:35.874Z,0.10
2023-05-06T11:06:42.720Z,0.20
2023-05-06T11:08:54.939Z,0.10
2023-05-06T11:10:56.474Z,0.10
2023-05-06T11:12:58.003Z,0.20
2023-05-06T11:15:18.548Z,0.20
2023-05-06T11:17:30.011Z,0.15
2023-05-06T11:19:32.879Z,0.10
2023-05-06T11:21:34.306Z,0.10
2023-05-06T11:23:52.261Z,0.10
2023-05-06T11:25:58.243Z,0.15
2023-05-06T11:27:59.786Z,0.13
2023-05-06T11:30:01.227Z,0.10
2023-05-06T11:32:03.616Z,0.10
2023-05-06T11:34:07.407Z,0.10
2023-05-06T11:36:14.204Z,0.10
2023-05-06T11:38:15.637Z,0.20
2023-05-06T11:40:17.062Z,0.10
2023-05-06T11:42:28.757Z,0.10
2023-05-06T11:44:31.150Z,0.20
2023-05-06T11:46:33.425Z,0.20
2023-05-06T11:48:35.617Z,0.20
2023-05-06T11:50:37.101Z,0.20
2023-05-06T11:52:38.628Z,0.30
2023-05-06T11:54:41.141Z,0.10
2023-05-06T11:56:50.193Z,0.20
2023-05-06T11:58:52.100Z,0.22
2023-05-06T12:00:55.749Z,0.13
2023-05-06T12:02:57.392Z,0.20
2023-05-06T12:04:58.995Z,0.17
2023-05-06T12:07:00.520Z,0.17
2023-05-06T12:09:03.652Z,0.20
2023-05-06T12:11:06.352Z,0.20
2023-05-06T12:13:08.310Z,0.10
2023-05-06T12:15:10.521Z,0.10
2023-05-06T12:17:12.707Z,0.10
2023-05-06T12:19:18.008Z,0.20
2023-05-06T12:23:35.258Z,0.10
2023-05-06T12:25:37.629Z,0.20
2023-05-06T12:27:39.791Z,0.10
2023-05-06T12:29:51.184Z,0.20
2023-05-06T12:32:06.551Z,0.15
2023-05-06T12:34:08.353Z,0.20
2023-05-06T12:36:09.965Z,0.10
2023-05-06T12:38:12.572Z,0.10
2023-05-06T12:40:17.890Z,0.20
2023-05-06T12:42:20.322Z,0.10
2023-05-06T12:44:34.955Z,0.20
2023-05-06T12:46:36.753Z,0.20
2023-05-06T12:48:38.878Z,0.10
2023-05-06T12:50:44.519Z,0.10
2023-05-06T12:52:45.938Z,0.20
2023-05-06T12:54:47.934Z,0.15
2023-05-06T12:56:49.324Z,0.00
2023-05-06T12:58:57.910Z,0.10
2023-05-06T13:00:59.443Z,0.10
2023-05-06T13:03:01.473Z,0.10
2023-05-06T13:05:03.437Z,0.08
2023-05-06T13:07:05.111Z,0.10
2023-05-06T13:09:06.648Z,0.10
2023-05-06T13:11:08.067Z,0.20
2023-05-06T13:13:09.551Z,0.10
2023-05-06T13:15:11.178Z,0.10
2023-05-06T13:17:14.580Z,0.10
2023-05-06T13:19:31.020Z,0.10
2023-05-06T13:21:34.112Z,0.15
2023-05-06T13:23:37.973Z,0.15
2023-05-06T13:25:51.726Z,0.10
2023-05-06T13:28:03.912Z,0.13
2023-05-06T13:30:06.050Z,0.10
2023-05-06T13:32:08.959Z,0.10
2023-05-06T13:34:10.681Z,0.10
2023-05-06T13:36:12.145Z,0.10
2023-05-06T13:38:13.596Z,0.10
2023-05-06T13:40:15.055Z,0.20
2023-05-06T13:42:16.488Z,0.20
2023-05-06T13:44:19.257Z,0.20
2023-05-06T13:46:21.077Z,0.25
2023-05-06T13:48:22.752Z,0.20
2023-05-06T13:50:24.159Z,0.17
2023-05-06T13:52:26.028Z,0.10
2023-05-06T13:54:27.415Z,0.10
2023-05-06T13:56:28.889Z,0.20
2023-05-06T13:58:31.211Z,0.17
2023-05-06T14:00:33.138Z,0.20
2023-05-06T14:02:34.590Z,0.30
2023-05-06T14:04:36.149Z,0.20
2023-05-06T14:06:38.744Z,0.25
2023-05-06T14:08:43.656Z,0.20
2023-05-06T14:10:45.302Z,0.20
2023-05-06T14:12:47.071Z,0.28
2023-05-06T14:14:48.571Z,0.20
2023-05-06T14:16:53.317Z,0.30
2023-05-06T14:18:54.811Z,0.17
2023-05-06T14:20:56.685Z,0.20
2023-05-06T14:22:58.217Z,0.20
2023-05-06T14:24:59.662Z,0.10
2023-05-06T14:27:01.197Z,0.10
2023-05-06T14:29:02.873Z,0.20
2023-05-06T14:31:04.640Z,0.10
2023-05-06T14:33:06.661Z,0.10
2023-05-06T14:35:08.499Z,0.10
2023-05-06T14:37:10.162Z,0.10
2023-05-06T14:39:12.017Z,0.10
2023-05-06T14:41:13.500Z,0.10
2023-05-06T14:43:14.952Z,0.15
2023-05-06T14:45:16.397Z,0.10
2023-05-06T14:47:17.898Z,0.20
2023-05-06T14:49:19.405Z,0.10
2023-05-06T14:51:20.850Z,0.20
2023-05-06T14:53:22.278Z,0.20
2023-05-06T14:55:23.783Z,0.25
2023-05-06T14:57:25.314Z,0.20
2023-05-06T14:59:26.899Z,0.17
2023-05-06T15:01:29.818Z,0.25
2023-05-06T15:03:31.271Z,0.10
2023-05-06T15:05:32.761Z,0.10
2023-05-06T15:07:34.200Z,0.20
2023-05-06T15:09:35.655Z,0.20
2023-05-06T15:11:37.041Z,0.10
2023-05-06T15:13:38.518Z,0.10
2023-05-06T15:15:39.982Z,0.10
2023-05-06T15:17:41.843Z,0.10
2023-05-06T15:19:43.330Z,0.20
2023-05-06T15:21:44.813Z,0.15
2023-05-06T15:23:47.202Z,0.20
2023-05-06T15:25:48.614Z,0.10
2023-05-06T15:27:50.310Z,0.10
2023-05-06T15:29:51.774Z,0.10
2023-05-06T15:31:53.396Z,0.10
2023-05-06T15:33:54.915Z,0.20
2023-05-06T15:35:56.414Z,0.10
2023-05-06T15:37:58.970Z,0.10
2023-05-06T15:40:00.957Z,0.20
2023-05-06T15:42:02.529Z,0.00
2023-05-06T15:46:07.714Z,0.20
2023-05-06T15:48:09.432Z,0.10
2023-05-06T15:50:21.271Z,0.10
2023-05-06T15:52:32.837Z,0.10
2023-05-06T15:54:37.491Z,0.10
2023-05-06T15:56:41.340Z,0.10
2023-05-06T15:58:43.672Z,0.20
2023-05-06T16:00:45.207Z,0.10
2023-05-06T16:02:47.034Z,0.10
2023-05-06T16:04:48.835Z,0.10
2023-05-06T16:06:50.664Z,0.22
2023-05-06T16:08:52.062Z,0.10
2023-05-06T16:10:53.694Z,0.10
2023-05-06T16:12:55.250Z,0.10
2023-05-06T16:14:56.667Z,0.10
2023-05-06T16:16:58.491Z,0.10
2023-05-06T16:19:00.066Z,0.10
2023-05-06T16:21:01.609Z,0.20
2023-05-06T16:23:03.368Z,0.10
2023-05-06T16:25:05.084Z,0.10
2023-05-06T16:27:06.547Z,0.10
2023-05-06T16:29:07.986Z,0.10
2023-05-06T16:31:09.557Z,0.10
2023-05-06T16:33:11.964Z,0.20
2023-05-06T16:35:13.683Z,0.30
2023-05-06T16:37:15.386Z,0.20
2023-05-06T16:39:16.839Z,0.30
2023-05-06T16:41:18.235Z,0.40
2023-05-06T16:43:19.843Z,0.50
2023-05-06T16:45:21.472Z,0.50
2023-05-06T16:47:26.157Z,0.50
2023-05-06T16:49:28.137Z,0.40
2023-05-06T16:51:29.664Z,0.50
2023-05-06T16:53:31.048Z,0.57
2023-05-06T16:55:32.682Z,0.50
2023-05-06T16:57:34.407Z,0.50
2023-05-06T16:59:36.242Z,0.52
2023-05-06T17:01:37.762Z,0.70
2023-05-06T17:03:40.312Z,0.50
2023-05-06T17:05:42.102Z,0.60
2023-05-06T17:07:43.591Z,0.60
2023-05-06T17:09:45.073Z,0.45
2023-05-06T17:11:46.637Z,0.60
2023-05-06T17:13:48.105Z,0.35
2023-05-06T17:15:49.601Z,0.40
2023-05-06T17:17:51.437Z,0.40
2023-05-06T17:19:53.270Z,0.40
2023-05-06T17:21:54.750Z,0.30
2023-05-06T17:23:56.246Z,0.30
2023-05-06T17:25:57.731Z,0.25
2023-05-06T17:27:59.240Z,0.20
2023-05-06T17:30:01.371Z,0.30
2023-05-06T17:32:02.958Z,0.30
2023-05-06T17:34:04.368Z,0.30
2023-05-06T17:36:06.408Z,0.30
2023-05-06T17:38:08.279Z,0.20
2023-05-06T17:40:09.976Z,0.20
2023-05-06T17:42:11.570Z,0.30
2023-05-06T17:44:13.154Z,0.30
2023-05-06T17:46:15.145Z,0.30
2023-05-06T17:48:17.475Z,0.20
2023-05-06T17:50:18.985Z,0.10
2023-05-06T17:52:20.555Z,0.20
2023-05-06T17:54:22.328Z,0.20
2023-05-06T17:56:23.889Z,0.17
2023-05-06T17:58:25.323Z,0.10
2023-05-06T18:00:26.919Z,0.10
2023-05-06T18:02:28.441Z,0.10
2023-05-06T18:04:32.998Z,0.20
2023-05-06T18:06:34.486Z,0.17
2023-05-06T18:08:35.958Z,0.28
2023-05-06T18:10:37.467Z,0.20
2023-05-06T18:12:39.019Z,0.25
2023-05-06T18:14:40.444Z,0.20
2023-05-06T18:16:42.114Z,0.15
2023-05-06T18:18:43.661Z,0.20
2023-05-06T18:20:45.188Z,0.17
2023-05-06T18:22:46.718Z,0.10
2023-05-06T18:24:48.238Z,0.17
2023-05-06T18:26:49.685Z,0.10
2023-05-06T18:28:51.124Z,0.10
2023-05-06T18:30:52.642Z,0.20
2023-05-06T18:32:56.545Z,0.20
2023-05-06T18:34:58.320Z,0.30
2023-05-06T18:37:02.731Z,0.30
2023-05-06T18:39:04.693Z,0.13
2023-05-06T18:41:07.836Z,0.20
2023-05-06T18:43:09.281Z,0.22
2023-05-06T18:45:11.295Z,0.25
2023-05-06T18:47:13.221Z,0.20
2023-05-06T18:49:15.090Z,0.20
2023-05-06T18:51:17.593Z,0.13
2023-05-06T18:53:19.022Z,0.10
2023-05-06T18:55:20.642Z,0.20
2023-05-06T18:57:23.256Z,0.10
2023-05-06T18:59:24.909Z,0.20
2023-05-06T19:01:26.745Z,0.20
2023-05-06T19:03:28.317Z,0.22
2023-05-06T19:05:29.760Z,0.30
2023-05-06T19:07:31.240Z,0.20
2023-05-06T19:09:36.810Z,0.20
2023-05-06T19:11:38.797Z,0.20
2023-05-06T19:13:41.422Z,0.20
2023-05-06T19:15:42.934Z,0.20
2023-05-06T19:17:44.392Z,0.20
2023-05-06T19:19:48.545Z,0.30
2023-05-06T19:21:49.978Z,0.20
2023-05-06T19:23:51.440Z,0.20
2023-05-06T19:25:53.047Z,0.20
2023-05-06T19:27:54.852Z,0.20
2023-05-06T19:29:56.575Z,0.25
2023-05-06T19:31:58.540Z,0.20
2023-05-06T19:34:00.016Z,0.20
2023-05-06T19:36:01.409Z,0.20
2023-05-06T19:38:02.857Z,0.30
2023-05-06T19:40:04.601Z,0.28
2023-05-06T19:42:06.101Z,0.20
2023-05-06T19:44:07.695Z,0.30
2023-05-06T19:46:09.838Z,0.10
2023-05-06T19:48:12.909Z,0.20
2023-05-06T19:50:14.462Z,0.10
2023-05-06T19:52:15.911Z,0.20
2023-05-06T19:54:19.302Z,0.10
2023-05-06T19:56:20.745Z,0.13
2023-05-06T19:58:22.299Z,0.10
2023-05-06T20:00:25.435Z,0.20
2023-05-06T20:02:27.138Z,0.13
2023-05-06T20:04:28.598Z,0.10
2023-05-06T20:06:31.817Z,0.10
2023-05-06T20:08:33.354Z,0.15
2023-05-06T20:10:34.821Z,0.20
2023-05-06T20:12:36.407Z,0.20
2023-05-06T20:14:38.001Z,0.10
2023-05-06T20:16:40.607Z,0.13
2023-05-06T20:18:42.785Z,0.10
2023-05-06T20:20:44.212Z,0.20
2023-05-06T20:22:45.952Z,0.20
2023-05-06T20:24:47.581Z,0.22
2023-05-06T20:26:49.268Z,0.13
2023-05-06T20:28:52.332Z,0.10
2023-05-06T20:30:55.444Z,0.10
2023-05-06T20:32:56.915Z,0.10
2023-05-06T20:34:58.370Z,0.10
2023-05-06T20:37:00.568Z,0.10
2023-05-06T20:39:02.283Z,0.20
2023-05-06T20:41:03.785Z,0.10
2023-05-06T20:43:05.356Z,0.20
2023-05-06T20:45:07.008Z,0.20
2023-05-06T20:47:12.295Z,0.10
2023-05-06T20:49:13.899Z,0.15
2023-05-06T20:51:15.664Z,0.20
2023-05-06T20:53:17.302Z,0.13
2023-05-06T20:55:20.538Z,0.20
2023-05-06T20:57:22.179Z,0.10
2023-05-06T20:59:23.729Z,0.10
2023-05-06T21:01:25.818Z,0.20
2023-05-06T21:03:27.433Z,0.20
2023-05-06T21:05:28.988Z,0.20
2023-05-06T21:07:30.805Z,0.20
2023-05-06T21:09:32.466Z,0.20
2023-05-06T21:11:33.837Z,0.30
2023-05-06T21:13:35.343Z,0.20
2023-05-06T21:15:37.625Z,0.20
2023-05-06T21:17:39.176Z,0.20
2023-05-06T21:19:40.733Z,0.20
2023-05-06T21:21:42.191Z,0.20
2023-05-06T21:23:43.614Z,0.15
2023-05-06T21:25:45.518Z,0.28
2023-05-06T21:27:47.083Z,0.10
2023-05-06T21:29:48.618Z,0.20
2023-05-06T21:31:50.015Z,0.20
2023-05-06T21:33:53.458Z,0.30
2023-05-06T21:35:54.820Z,0.17
2023-05-06T21:37:56.482Z,0.20
2023-05-06T21:39:58.153Z,0.20
2023-05-06T21:41:59.703Z,0.20
2023-05-06T21:44:01.441Z,0.20
2023-05-06T21:46:03.655Z,0.20
2023-05-06T21:48:05.314Z,0.20
2023-05-06T21:50:07.183Z,0.20
2023-05-06T21:52:08.657Z,0.20
2023-05-06T21:54:10.182Z,0.20
2023-05-06T21:56:11.688Z,0.20
2023-05-06T21:58:13.131Z,0.10
2023-05-06T22:00:14.893Z,0.30
2023-05-06T22:02:16.473Z,0.20
2023-05-06T22:04:19.936Z,0.20
2023-05-06T22:06:21.853Z,0.20
2023-05-06T22:08:23.427Z,0.20
2023-05-06T22:10:24.822Z,0.10
2023-05-06T22:12:27.278Z,0.20
2023-05-06T22:14:37.441Z,0.10
2023-05-06T22:16:42.781Z,0.13
2023-05-06T22:18:44.292Z,0.20
2023-05-06T22:20:46.590Z,0.20
2023-05-06T22:22:50.169Z,0.30
2023-05-06T22:24:51.524Z,0.13
2023-05-06T22:26:52.962Z,0.20
2023-05-06T22:28:55.348Z,0.10
2023-05-06T22:30:57.174Z,0.30
2023-05-06T22:32:58.848Z,0.20
2023-05-06T22:35:00.358Z,0.20
2023-05-06T22:37:03.210Z,0.15
2023-05-06T22:39:04.671Z,0.10
2023-05-06T22:41:06.126Z,0.10
2023-05-06T22:43:07.721Z,0.20
2023-05-06T22:45:11.713Z,0.13
2023-05-06T22:47:14.351Z,0.20
2023-05-06T22:49:15.916Z,0.15
2023-05-06T22:51:17.774Z,0.10
2023-05-06T22:53:19.201Z,0.20
2023-05-06T22:55:20.753Z,0.10
2023-05-06T22:57:25.330Z,0.30
2023-05-06T22:59:27.254Z,0.20
2023-05-06T23:01:32.127Z,0.20
2023-05-06T23:03:33.978Z,0.10
2023-05-06T23:05:35.518Z,0.20
2023-05-06T23:07:36.925Z,0.20
2023-05-06T23:09:38.299Z,0.20
2023-05-06T23:11:40.224Z,0.10
2023-05-06T23:13:41.654Z,0.08
2023-05-06T23:15:43.181Z,0.10
2023-05-06T23:17:44.725Z,0.20
2023-05-06T23:19:46.329Z,0.10
2023-05-06T23:21:48.106Z,0.10
2023-05-06T23:23:49.498Z,0.10
2023-05-06T23:25:51.223Z,0.10
2023-05-06T23:27:52.687Z,0.10
2023-05-06T23:29:54.100Z,0.10
2023-05-06T23:31:55.587Z,0.10
2023-05-06T23:33:56.966Z,0.10
2023-05-06T23:36:02.419Z,0.10
2023-05-06T23:38:04.091Z,0.20
2023-05-06T23:40:05.903Z,0.17
2023-05-06T23:42:07.425Z,0.20
2023-05-06T23:44:08.881Z,0.13
2023-05-06T23:46:10.859Z,0.10
2023-05-06T23:48:12.654Z,0.10
2023-05-06T23:50:14.404Z,0.10
2023-05-06T23:52:16.071Z,0.10
2023-05-06T23:54:17.628Z,0.00
2023-05-06T23:56:20.434Z,0.10
2023-05-06T23:58:21.810Z,0.10
